createdAt,value
2018-04-23T00:02:10.101Z,9.90
2018-04-23T00:04:38.617Z,9.80
2018-04-23T00:07:06.552Z,9.80
2018-04-23T00:09:35.729Z,9.90
2018-04-23T00:12:03.510Z,9.80
2018-04-23T00:14:31.208Z,9.90
2018-04-23T00:16:59.773Z,9.80
2018-04-23T00:19:27.465Z,9.80
2018-04-23T00:21:55.211Z,9.80
2018-04-23T00:24:23.785Z,9.80
2018-04-23T00:26:52.313Z,9.80
2018-04-23T00:29:20.052Z,9.80
2018-04-23T00:31:47.770Z,9.90
2018-04-23T00:34:15.480Z,9.80
2018-04-23T00:36:43.987Z,9.80
2018-04-23T00:39:11.740Z,9.80
2018-04-23T00:41:39.529Z,9.80
2018-04-23T00:44:07.308Z,9.80
2018-04-23T00:46:34.997Z,9.70
2018-04-23T00:49:02.811Z,9.80
2018-04-23T00:51:31.371Z,9.70
2018-04-23T00:53:59.140Z,9.70
2018-04-23T00:56:27.612Z,9.70
2018-04-23T00:58:55.336Z,9.70
2018-04-23T01:01:23.089Z,9.70
2018-04-23T01:03:50.833Z,9.70
2018-04-23T01:06:19.340Z,9.70
2018-04-23T01:08:47.101Z,9.70
2018-04-23T01:11:15.020Z,9.70
2018-04-23T01:13:42.718Z,9.70
2018-04-23T01:16:11.213Z,9.70
2018-04-23T01:18:38.948Z,9.70
2018-04-23T01:21:06.681Z,9.60
2018-04-23T01:23:34.418Z,9.70
2018-04-23T01:26:02.944Z,9.70
2018-04-23T01:28:30.642Z,9.70
2018-04-23T01:30:58.746Z,9.70
2018-04-23T01:33:27.239Z,9.70
2018-04-23T01:35:57.774Z,9.70
2018-04-23T01:38:25.532Z,9.70
2018-04-23T01:40:53.254Z,9.80
2018-04-23T01:43:21.069Z,9.70
2018-04-23T01:45:48.807Z,9.70
2018-04-23T01:48:17.289Z,9.70
2018-04-23T01:50:45.052Z,9.70
2018-04-23T01:53:13.074Z,9.70
2018-04-23T01:55:40.828Z,9.70
2018-04-23T01:58:08.687Z,9.70
2018-04-23T02:00:36.457Z,9.70
2018-04-23T02:03:04.202Z,9.60
2018-04-23T02:05:32.713Z,9.60
2018-04-23T02:08:00.461Z,9.60
2018-04-23T02:10:28.387Z,9.60
2018-04-23T02:12:56.125Z,9.60
2018-04-23T02:15:23.883Z,9.50
2018-04-23T02:17:51.621Z,9.50
2018-04-23T02:20:19.384Z,9.50
2018-04-23T02:22:47.134Z,9.60
2018-04-23T02:25:14.842Z,9.60
2018-04-23T02:27:42.604Z,9.50
2018-04-23T02:30:10.365Z,9.60
2018-04-23T02:32:38.070Z,9.50
2018-04-23T02:35:05.870Z,9.50
2018-04-23T02:37:33.585Z,9.50
2018-04-23T02:40:01.321Z,9.50
2018-04-23T02:42:29.820Z,9.50
2018-04-23T02:44:57.548Z,9.50
2018-04-23T02:47:25.425Z,9.50
2018-04-23T02:49:53.130Z,9.50
2018-04-23T02:52:22.637Z,9.50
2018-04-23T02:54:51.110Z,9.50
2018-04-23T02:57:18.833Z,9.50
2018-04-23T02:59:47.362Z,9.50
2018-04-23T03:02:15.817Z,9.50
2018-04-23T03:04:43.511Z,9.50
2018-04-23T03:07:12.042Z,9.50
2018-04-23T03:09:39.736Z,9.50
2018-04-23T03:12:07.585Z,9.50
2018-04-23T03:14:35.287Z,9.50
2018-04-23T03:17:03.828Z,9.50
2018-04-23T03:19:31.562Z,9.50
2018-04-23T03:21:59.305Z,9.40
2018-04-23T03:24:27.770Z,9.30
2018-04-23T03:26:55.569Z,9.30
2018-04-23T03:29:23.698Z,9.20
2018-04-23T03:31:51.575Z,9.20
2018-04-23T03:34:19.292Z,9.20
2018-04-23T03:36:47.857Z,9.10
2018-04-23T03:39:17.017Z,9.10
2018-04-23T03:41:44.873Z,9.10
2018-04-23T03:44:12.924Z,9.10
2018-04-23T03:46:40.622Z,9.00
2018-04-23T03:49:08.352Z,8.90
2018-04-23T03:51:36.868Z,8.90
2018-04-23T03:54:04.576Z,8.90
2018-04-23T03:56:32.474Z,8.80
2018-04-23T03:59:00.209Z,8.80
2018-04-23T04:01:28.090Z,8.80
2018-04-23T04:03:56.620Z,8.70
2018-04-23T04:06:24.398Z,8.70
2018-04-23T04:08:52.148Z,8.70
2018-04-23T04:11:19.934Z,8.70
2018-04-23T04:14:00.274Z,8.70
2018-04-23T04:16:39.796Z,8.60
2018-04-23T04:19:07.561Z,8.60
2018-04-23T04:21:36.229Z,8.60
2018-04-23T04:24:04.741Z,8.70
2018-04-23T04:26:32.494Z,8.70
2018-04-23T04:29:00.992Z,8.80
2018-04-23T04:31:28.758Z,8.80
2018-04-23T04:33:56.666Z,8.80
2018-04-23T04:36:24.417Z,8.80
2018-04-23T04:38:52.216Z,8.90
2018-04-23T04:41:20.073Z,8.90
2018-04-23T04:43:48.605Z,9.00
2018-04-23T04:46:16.295Z,9.00
2018-04-23T04:48:44.037Z,9.00
2018-04-23T04:51:12.685Z,9.00
2018-04-23T04:53:40.550Z,9.00
2018-04-23T04:56:08.307Z,9.00
2018-04-23T04:58:36.001Z,9.00
2018-04-23T05:01:03.767Z,9.10
2018-04-23T05:03:31.469Z,9.10
2018-04-23T05:05:59.232Z,9.10
2018-04-23T05:08:26.965Z,9.10
2018-04-23T05:10:55.505Z,9.20
2018-04-23T05:13:23.272Z,9.20
2018-04-23T05:15:51.005Z,9.20
2018-04-23T05:18:19.488Z,9.30
2018-04-23T05:20:48.025Z,9.20
2018-04-23T05:23:15.799Z,9.20
2018-04-23T05:25:43.522Z,9.20
2018-04-23T05:28:11.283Z,9.20
2018-04-23T05:30:39.784Z,9.40
2018-04-23T05:33:07.530Z,9.20
2018-04-23T05:35:36.937Z,9.30
2018-04-23T05:38:05.190Z,9.30
2018-04-23T05:40:34.511Z,9.40
2018-04-23T05:43:02.589Z,9.40
2018-04-23T05:45:47.422Z,9.40
2018-04-23T05:48:15.920Z,9.50
2018-04-23T05:50:44.865Z,9.50
2018-04-23T05:53:12.529Z,9.50
2018-04-23T05:55:40.149Z,9.50
2018-04-23T05:58:07.796Z,9.50
2018-04-23T06:00:35.524Z,9.50
2018-04-23T06:03:03.147Z,9.40
2018-04-23T06:05:30.776Z,9.40
2018-04-23T06:07:58.407Z,9.40
2018-04-23T06:10:26.151Z,9.40
2018-04-23T06:12:53.830Z,9.50
2018-04-23T06:15:21.481Z,9.50
2018-04-23T06:17:50.626Z,9.50
2018-04-23T06:22:52.111Z,9.60
2018-04-23T06:25:20.391Z,9.60
2018-04-23T06:27:48.076Z,9.70
2018-04-23T06:30:15.724Z,9.70
2018-04-23T06:32:43.396Z,9.70
2018-04-23T06:35:11.155Z,9.70
2018-04-23T06:37:39.028Z,9.70
2018-04-23T06:40:06.625Z,9.70
2018-04-23T06:42:34.409Z,9.60
2018-04-23T06:45:02.277Z,9.60
2018-04-23T06:47:30.664Z,9.60
2018-04-23T06:49:59.085Z,9.70
2018-04-23T06:52:26.795Z,9.70
2018-04-23T06:54:55.947Z,9.70
2018-04-23T06:57:23.857Z,9.70
2018-04-23T06:59:51.508Z,9.70
2018-04-23T07:02:19.172Z,9.80
2018-04-23T07:04:46.917Z,9.80
2018-04-23T07:07:14.560Z,9.80
2018-04-23T07:09:42.152Z,9.90
2018-04-23T07:12:09.796Z,9.90
2018-04-23T07:14:37.372Z,9.90
2018-04-23T07:17:04.948Z,10.00
2018-04-23T07:19:32.634Z,10.10
2018-04-23T07:22:00.233Z,10.10
2018-04-23T07:24:27.826Z,10.00
2018-04-23T07:26:55.485Z,10.00
2018-04-23T07:29:23.170Z,10.00
2018-04-23T07:31:50.782Z,10.10
2018-04-23T07:34:18.378Z,10.10
2018-04-23T07:36:45.992Z,10.20
2018-04-23T07:39:14.430Z,10.20
2018-04-23T07:41:42.028Z,10.20
2018-04-23T07:44:09.670Z,10.20
2018-04-23T07:46:37.270Z,10.30
2018-04-23T07:49:05.667Z,10.40
2018-04-23T07:51:33.263Z,10.40
2018-04-23T07:54:00.919Z,10.40
2018-04-23T07:56:28.524Z,10.40
2018-04-23T07:58:56.170Z,10.50
2018-04-23T08:01:23.777Z,10.60
2018-04-23T08:03:51.429Z,10.60
2018-04-23T08:06:19.152Z,10.70
2018-04-23T08:08:46.799Z,10.70
2018-04-23T08:11:14.439Z,10.70
2018-04-23T08:13:42.040Z,10.70
2018-04-23T08:16:09.673Z,10.80
2018-04-23T08:18:37.280Z,10.90
2018-04-23T08:21:04.924Z,10.90
2018-04-23T08:23:32.560Z,11.00
2018-04-23T08:26:00.959Z,11.20
2018-04-23T08:28:28.592Z,11.10
2018-04-23T08:30:56.219Z,11.20
2018-04-23T08:33:23.864Z,11.20
2018-04-23T08:35:51.506Z,11.30
2018-04-23T08:38:19.103Z,11.30
2018-04-23T08:40:46.731Z,11.30
2018-04-23T08:43:14.311Z,11.30
2018-04-23T08:45:41.960Z,11.30
2018-04-23T08:48:10.365Z,11.20
2018-04-23T08:50:37.960Z,11.20
2018-04-23T08:53:05.632Z,11.30
2018-04-23T08:55:33.285Z,11.30
2018-04-23T08:58:00.893Z,11.20
2018-04-23T09:00:29.285Z,11.30
2018-04-23T09:02:56.889Z,11.30
2018-04-23T09:05:24.525Z,11.30
2018-04-23T09:07:52.148Z,11.40
2018-04-23T09:10:19.797Z,11.30
2018-04-23T09:12:47.422Z,11.40
2018-04-23T09:15:15.088Z,11.60
2018-04-23T09:17:42.762Z,11.60
2018-04-23T09:20:10.528Z,11.50
2018-04-23T09:22:38.151Z,11.50
2018-04-23T09:25:05.829Z,11.60
2018-04-23T09:27:33.449Z,11.60
2018-04-23T09:30:01.090Z,11.40
2018-04-23T09:32:28.709Z,11.50
2018-04-23T09:34:57.126Z,12.00
2018-04-23T09:37:25.000Z,12.00
2018-04-23T09:39:52.631Z,12.20
2018-04-23T09:42:20.265Z,12.30
2018-04-23T09:44:47.857Z,12.40
2018-04-23T09:47:16.764Z,12.50
2018-04-23T09:49:44.550Z,12.70
2018-04-23T09:52:12.187Z,12.70
2018-04-23T09:54:39.772Z,12.70
2018-04-23T09:57:07.492Z,12.70
2018-04-23T09:59:35.084Z,12.90
2018-04-23T10:02:02.773Z,13.00
2018-04-23T10:04:30.400Z,12.80
2018-04-23T10:06:58.792Z,12.90
2018-04-23T10:09:26.476Z,12.90
2018-04-23T10:11:54.101Z,13.00
2018-04-23T10:14:21.695Z,13.00
2018-04-23T10:16:49.381Z,12.90
2018-04-23T10:19:17.009Z,12.80
2018-04-23T10:21:44.650Z,12.80
2018-04-23T10:24:13.047Z,12.80
2018-04-23T10:26:41.460Z,12.70
2018-04-23T10:29:09.131Z,12.60
2018-04-23T10:31:36.767Z,12.60
2018-04-23T10:34:04.404Z,12.70
2018-04-23T10:36:32.753Z,13.00
2018-04-23T10:39:00.425Z,13.00
2018-04-23T10:41:28.020Z,13.30
2018-04-23T10:43:56.595Z,13.30
2018-04-23T10:46:24.224Z,13.30
2018-04-23T10:48:51.881Z,13.50
2018-04-23T10:51:19.518Z,13.70
2018-04-23T10:53:47.152Z,13.80
2018-04-23T10:56:14.780Z,13.80
2018-04-23T10:58:42.380Z,13.70
2018-04-23T11:01:10.004Z,13.80
2018-04-23T11:03:37.658Z,13.50
2018-04-23T11:06:05.276Z,13.60
2018-04-23T11:08:32.920Z,13.80
2018-04-23T11:11:00.563Z,13.80
2018-04-23T11:13:28.181Z,13.80
2018-04-23T11:15:56.568Z,13.80
2018-04-23T11:18:24.200Z,13.80
2018-04-23T11:20:51.934Z,13.80
2018-04-23T11:23:19.554Z,14.00
2018-04-23T11:25:47.176Z,14.10
2018-04-23T11:28:14.811Z,14.20
2018-04-23T11:30:42.459Z,14.20
2018-04-23T11:33:10.077Z,13.90
2018-04-23T11:35:37.752Z,13.40
2018-04-23T11:38:05.473Z,13.20
2018-04-23T11:40:33.157Z,13.10
2018-04-23T11:43:00.788Z,13.00
2018-04-23T11:45:28.411Z,12.90
2018-04-23T11:47:56.041Z,13.00
2018-04-23T11:50:23.665Z,13.20
2018-04-23T11:52:52.766Z,13.30
2018-04-23T11:55:22.029Z,13.10
2018-04-23T11:57:49.704Z,13.10
2018-04-23T12:00:18.098Z,12.90
2018-04-23T12:02:45.747Z,12.80
2018-04-23T12:05:13.344Z,12.80
2018-04-23T12:07:40.988Z,13.00
2018-04-23T12:10:08.623Z,13.10
2018-04-23T12:12:36.223Z,13.20
2018-04-23T12:15:03.944Z,13.30
2018-04-23T12:17:31.528Z,13.50
2018-04-23T12:19:59.161Z,13.70
2018-04-23T12:22:26.832Z,14.10
2018-04-23T12:24:55.119Z,14.10
2018-04-23T12:27:22.745Z,14.20
2018-04-23T12:29:50.377Z,13.90
2018-04-23T12:32:17.988Z,13.70
2018-04-23T12:34:45.681Z,13.60
2018-04-23T12:37:13.337Z,13.50
2018-04-23T12:39:40.950Z,13.60
2018-04-23T12:42:08.587Z,13.80
2018-04-23T12:44:36.249Z,14.20
2018-04-23T12:47:03.857Z,14.20
2018-04-23T12:49:32.274Z,14.00
2018-04-23T12:52:00.685Z,14.00
2018-04-23T12:54:28.346Z,14.00
2018-04-23T12:56:56.068Z,14.10
2018-04-23T12:59:25.295Z,14.30
2018-04-23T13:01:52.928Z,14.20
2018-04-23T13:04:20.771Z,14.00
2018-04-23T13:06:49.375Z,13.90
2018-04-23T13:09:16.987Z,13.90
2018-04-23T13:11:44.732Z,13.70
2018-04-23T13:14:12.316Z,13.60
2018-04-23T13:16:39.933Z,13.70
2018-04-23T13:19:07.559Z,13.90
2018-04-23T13:21:35.524Z,14.00
2018-04-23T13:24:03.170Z,14.10
2018-04-23T13:26:30.792Z,14.30
2018-04-23T13:28:58.547Z,14.70
2018-04-23T13:31:26.184Z,15.00
2018-04-23T13:33:53.824Z,15.00
2018-04-23T13:36:21.476Z,14.90
2018-04-23T13:38:49.084Z,14.70
2018-04-23T13:41:16.740Z,14.60
2018-04-23T13:43:44.354Z,14.40
2018-04-23T13:46:11.969Z,14.50
2018-04-23T13:48:39.585Z,14.70
2018-04-23T13:51:07.215Z,14.60
2018-04-23T13:53:34.843Z,14.40
2018-04-23T13:56:02.440Z,14.50
2018-04-23T13:58:30.876Z,14.70
2018-04-23T14:00:58.538Z,14.70
2018-04-23T14:03:26.126Z,14.60
2018-04-23T14:05:53.800Z,14.60
2018-04-23T14:08:21.393Z,14.60
2018-04-23T14:10:49.758Z,14.90
2018-04-23T14:13:18.298Z,14.80
2018-04-23T14:15:45.898Z,14.70
2018-04-23T14:18:13.567Z,15.00
2018-04-23T14:20:41.218Z,15.20
2018-04-23T14:23:09.601Z,15.50
2018-04-23T14:25:37.242Z,15.50
2018-04-23T14:28:04.868Z,15.60
2018-04-23T14:30:32.484Z,15.80
2018-04-23T14:33:00.092Z,16.00
2018-04-23T14:35:27.754Z,16.30
2018-04-23T14:37:56.274Z,15.80
2018-04-23T14:40:23.872Z,15.80
2018-04-23T14:42:51.571Z,15.90
2018-04-23T14:45:19.283Z,15.60
2018-04-23T14:47:46.956Z,15.40
2018-04-23T14:50:14.617Z,15.20
2018-04-23T14:52:42.278Z,15.30
2018-04-23T14:55:09.919Z,15.50
2018-04-23T14:57:38.943Z,15.60
2018-04-23T15:00:09.051Z,15.30
2018-04-23T15:02:36.676Z,15.00
2018-04-23T15:05:05.700Z,15.60
2018-04-23T15:07:33.347Z,15.50
2018-04-23T15:10:01.002Z,15.80
2018-04-23T15:12:29.419Z,16.00
2018-04-23T15:14:57.182Z,16.00
2018-04-23T15:17:24.829Z,16.10
2018-04-23T15:19:52.421Z,16.10
2018-04-23T15:22:20.176Z,16.10
2018-04-23T15:24:48.678Z,15.90
2018-04-23T15:27:18.383Z,15.40
2018-04-23T15:29:46.038Z,15.40
2018-04-23T15:32:13.655Z,15.30
2018-04-23T15:34:41.281Z,15.20
2018-04-23T15:37:08.872Z,14.90
2018-04-23T15:39:36.494Z,14.70
2018-04-23T15:42:04.204Z,14.70
2018-04-23T15:44:32.624Z,14.80
2018-04-23T15:47:00.264Z,14.80
2018-04-23T15:49:28.687Z,15.30
2018-04-23T15:51:56.333Z,15.20
2018-04-23T15:54:23.932Z,15.20
2018-04-23T15:56:51.525Z,15.20
2018-04-23T15:59:19.949Z,14.90
2018-04-23T16:01:47.589Z,14.80
2018-04-23T16:04:15.307Z,14.50
2018-04-23T16:06:42.964Z,14.30
2018-04-23T16:09:10.577Z,14.00
2018-04-23T16:11:39.077Z,13.60
2018-04-23T16:14:06.746Z,13.60
2018-04-23T16:16:34.392Z,13.50
2018-04-23T16:19:03.750Z,13.40
2018-04-23T16:21:31.392Z,13.40
2018-04-23T16:23:59.063Z,13.40
2018-04-23T16:26:26.735Z,13.30
2018-04-23T16:28:54.334Z,13.20
2018-04-23T16:31:21.973Z,13.10
2018-04-23T16:33:49.680Z,13.10
2018-04-23T16:36:17.517Z,13.00
2018-04-23T16:38:45.191Z,13.00
2018-04-23T16:41:12.812Z,13.00
2018-04-23T16:43:40.442Z,13.00
2018-04-23T16:46:08.138Z,13.00
2018-04-23T16:48:36.192Z,13.10
2018-04-23T16:51:03.852Z,13.30
2018-04-23T16:53:32.221Z,13.50
2018-04-23T16:55:59.919Z,13.50
2018-04-23T16:58:27.542Z,13.50
2018-04-23T17:00:55.947Z,13.50
2018-04-23T17:03:24.365Z,13.50
2018-04-23T17:05:53.448Z,13.40
2018-04-23T17:08:21.072Z,13.30
2018-04-23T17:10:48.705Z,13.10
2018-04-23T17:13:16.353Z,13.10
2018-04-23T17:15:44.042Z,13.10
2018-04-23T17:18:11.694Z,13.10
2018-04-23T17:20:39.452Z,13.10
2018-04-23T17:23:07.144Z,13.10
2018-04-23T17:25:34.797Z,13.00
2018-04-23T17:28:03.305Z,12.90
2018-04-23T17:30:31.751Z,12.70
2018-04-23T17:32:59.402Z,12.70
2018-04-23T17:35:27.806Z,12.60
2018-04-23T17:37:55.436Z,12.50
2018-04-23T17:40:23.058Z,12.50
2018-04-23T17:42:51.471Z,12.20
2018-04-23T17:45:19.160Z,12.50
2018-04-23T17:47:46.860Z,12.50
2018-04-23T17:50:14.712Z,12.40
2018-04-23T17:52:42.356Z,12.40
2018-04-23T17:55:09.967Z,12.30
2018-04-23T17:57:37.678Z,12.30
2018-04-23T18:00:05.368Z,12.20
2018-04-23T18:02:33.008Z,12.10
2018-04-23T18:05:01.438Z,12.10
2018-04-23T18:07:30.175Z,12.10
2018-04-23T18:09:58.185Z,12.00
2018-04-23T18:12:28.786Z,12.10
2018-04-23T18:14:58.921Z,12.10
2018-04-23T18:17:27.212Z,12.00
2018-04-23T18:19:54.832Z,12.00
2018-04-23T18:22:23.261Z,11.90
2018-04-23T18:24:52.361Z,11.90
2018-04-23T18:27:20.770Z,11.90
2018-04-23T18:29:48.504Z,11.90
2018-04-23T18:32:16.156Z,11.90
2018-04-23T18:34:43.794Z,11.80
2018-04-23T18:37:11.500Z,11.80
2018-04-23T18:39:39.241Z,11.80
2018-04-23T18:42:07.704Z,11.70
2018-04-23T18:44:36.205Z,11.70
2018-04-23T18:47:04.153Z,11.70
2018-04-23T18:49:31.886Z,11.70
2018-04-23T18:51:59.878Z,11.60
2018-04-23T18:54:27.607Z,11.50
2018-04-23T18:56:55.301Z,11.40
2018-04-23T18:59:23.842Z,11.30
2018-04-23T19:01:51.598Z,11.20
2018-04-23T19:04:19.283Z,11.20
2018-04-23T19:06:48.090Z,11.20
2018-04-23T19:09:16.700Z,11.10
2018-04-23T19:11:45.654Z,11.10
2018-04-23T19:14:13.348Z,11.10
2018-04-23T19:16:42.290Z,11.10
2018-04-23T19:19:10.024Z,11.10
2018-04-23T19:21:40.273Z,11.00
2018-04-23T19:24:07.983Z,11.00
2018-04-23T19:26:35.725Z,11.00
2018-04-23T19:29:03.430Z,11.00
2018-04-23T19:31:32.009Z,11.00
2018-04-23T19:34:01.007Z,11.00
2018-04-23T19:36:36.548Z,11.00
2018-04-23T19:39:05.870Z,10.90
2018-04-23T19:41:33.887Z,10.80
2018-04-23T19:44:02.275Z,10.70
2018-04-23T19:46:31.302Z,10.70
2018-04-23T19:48:58.996Z,10.70
2018-04-23T19:51:26.884Z,10.70
2018-04-23T19:53:54.581Z,10.80
2018-04-23T19:56:22.326Z,10.90
2018-04-23T19:58:50.948Z,11.00
2018-04-23T20:01:18.774Z,11.00
2018-04-23T20:03:46.472Z,11.10
2018-04-23T20:06:14.201Z,11.10
2018-04-23T20:08:43.456Z,11.10
2018-04-23T20:11:11.194Z,11.10
2018-04-23T20:13:39.645Z,11.10
2018-04-23T20:16:09.641Z,11.10
2018-04-23T20:18:37.397Z,11.20
2018-04-23T20:21:05.185Z,11.20
2018-04-23T20:23:33.053Z,11.20
2018-04-23T20:26:00.664Z,11.20
2018-04-23T20:28:28.463Z,11.20
2018-04-23T20:30:56.148Z,11.20
2018-04-23T20:33:24.615Z,11.20
2018-04-23T20:35:52.282Z,11.20
2018-04-23T20:38:19.904Z,11.20
2018-04-23T20:40:49.579Z,11.20
2018-04-23T20:43:17.238Z,11.20
2018-04-23T20:45:45.034Z,11.30
2018-04-23T20:48:13.441Z,11.30
2018-04-23T20:50:41.119Z,11.30
2018-04-23T20:53:08.768Z,11.30
2018-04-23T20:55:37.253Z,11.40
2018-04-23T20:58:04.885Z,11.30
2018-04-23T21:00:32.539Z,11.40
2018-04-23T21:03:00.200Z,11.40
2018-04-23T21:05:29.376Z,11.30
2018-04-23T21:07:58.517Z,11.30
2018-04-23T21:10:27.286Z,11.40
2018-04-23T21:12:54.946Z,11.40
2018-04-23T21:15:22.667Z,11.40
2018-04-23T21:17:50.347Z,11.40
2018-04-23T21:20:17.983Z,11.40
2018-04-23T21:22:45.641Z,11.40
2018-04-23T21:25:13.462Z,11.40
2018-04-23T21:27:41.969Z,11.40
2018-04-23T21:30:09.620Z,11.40
2018-04-23T21:32:38.271Z,11.30
2018-04-23T21:35:05.931Z,11.20
2018-04-23T21:37:33.612Z,11.20
2018-04-23T21:40:01.234Z,11.20
2018-04-23T21:42:29.636Z,11.10
2018-04-23T21:44:57.279Z,11.10
2018-04-23T21:47:24.920Z,11.10
2018-04-23T21:49:52.517Z,11.10
2018-04-23T21:52:20.972Z,11.10
2018-04-23T21:54:48.988Z,11.00
2018-04-23T21:57:16.596Z,11.00
2018-04-23T21:59:44.231Z,11.00
2018-04-23T22:02:11.911Z,11.00
2018-04-23T22:04:39.515Z,11.00
2018-04-23T22:07:07.133Z,11.00
2018-04-23T22:09:35.644Z,11.00
2018-04-23T22:12:03.307Z,11.00
2018-04-23T22:14:30.941Z,11.00
2018-04-23T22:16:58.637Z,11.00
2018-04-23T22:19:27.612Z,11.10
2018-04-23T22:21:55.240Z,11.10
2018-04-23T22:24:22.842Z,11.20
2018-04-23T22:26:50.529Z,11.20
2018-04-23T22:29:18.176Z,11.20
2018-04-23T22:31:47.066Z,11.20
2018-04-23T22:34:16.187Z,11.30
2018-04-23T22:36:46.067Z,11.30
2018-04-23T22:39:14.688Z,11.30
2018-04-23T22:41:42.326Z,11.30
2018-04-23T22:44:10.423Z,11.30
2018-04-23T22:46:38.724Z,11.40
2018-04-23T22:49:08.034Z,11.40
2018-04-23T22:51:36.655Z,11.40
2018-04-23T22:54:04.570Z,11.40
2018-04-23T22:56:32.180Z,11.40
2018-04-23T22:58:59.809Z,11.50
2018-04-23T23:01:28.224Z,11.50
2018-04-23T23:03:56.002Z,11.50
2018-04-23T23:06:23.853Z,11.50
2018-04-23T23:08:51.677Z,11.50
2018-04-23T23:11:19.461Z,11.50
2018-04-23T23:13:47.650Z,11.50
2018-04-23T23:16:15.705Z,11.50
2018-04-23T23:18:43.444Z,11.50
2018-04-23T23:21:11.236Z,11.50
2018-04-23T23:23:39.017Z,11.50
2018-04-23T23:26:06.684Z,11.60
2018-04-23T23:28:34.350Z,11.60
2018-04-23T23:31:02.824Z,11.60
2018-04-23T23:33:31.580Z,11.60
2018-04-23T23:35:59.268Z,11.60
2018-04-23T23:38:27.220Z,11.60
2018-04-23T23:40:54.849Z,11.60
2018-04-23T23:43:22.469Z,11.60
2018-04-23T23:45:50.105Z,11.60
2018-04-23T23:48:17.829Z,11.60
2018-04-23T23:50:46.273Z,11.60
2018-04-23T23:53:14.031Z,11.60
2018-04-23T23:55:41.800Z,11.60
2018-04-23T23:58:09.501Z,11.60
